createdAt,value
2022-10-18T00:00:17.099Z,16.31
2022-10-18T00:02:43.874Z,16.31
2022-10-18T00:05:10.773Z,16.60
2022-10-18T00:07:37.797Z,16.72
2022-10-18T00:10:05.453Z,16.67
2022-10-18T00:12:34.711Z,16.64
2022-10-18T00:15:02.006Z,16.45
2022-10-18T00:17:29.246Z,16.59
2022-10-18T00:19:56.443Z,16.72
2022-10-18T00:22:23.332Z,16.82
2022-10-18T00:24:50.324Z,16.62
2022-10-18T00:27:17.642Z,16.62
2022-10-18T00:29:44.422Z,16.62
2022-10-18T00:32:12.181Z,16.34
2022-10-18T00:34:40.312Z,16.70
2022-10-18T00:37:07.422Z,16.34
2022-10-18T00:39:34.416Z,16.30
2022-10-18T00:42:01.533Z,16.13
2022-10-18T00:44:28.296Z,16.26
2022-10-18T00:47:03.413Z,16.17
2022-10-18T00:49:34.389Z,16.51
2022-10-18T00:52:11.824Z,16.81
2022-10-18T00:54:41.573Z,16.46
2022-10-18T00:57:08.726Z,16.56
2022-10-18T00:59:36.789Z,16.71
2022-10-18T01:02:04.420Z,16.70
2022-10-18T01:04:31.295Z,16.49
2022-10-18T01:07:09.056Z,16.76
2022-10-18T01:09:35.719Z,16.59
2022-10-18T01:12:40.631Z,16.56
2022-10-18T01:15:36.167Z,16.75
2022-10-18T01:18:18.732Z,16.67
2022-10-18T01:20:51.351Z,16.66
2022-10-18T01:23:39.757Z,16.67
2022-10-18T01:26:36.048Z,16.60
2022-10-18T01:29:17.890Z,16.64
2022-10-18T01:31:49.736Z,16.49
2022-10-18T01:34:18.963Z,16.66
2022-10-18T01:36:52.324Z,16.83
2022-10-18T01:39:24.551Z,16.95
2022-10-18T01:41:52.712Z,16.04
2022-10-18T01:44:23.922Z,15.97
2022-10-18T01:46:54.309Z,16.58
2022-10-18T01:49:21.233Z,17.02
2022-10-18T01:51:48.137Z,16.55
2022-10-18T01:54:21.744Z,16.42
2022-10-18T01:57:29.093Z,16.66
2022-10-18T02:00:06.649Z,16.65
2022-10-18T02:02:49.362Z,16.70
2022-10-18T02:05:41.252Z,16.64
2022-10-18T02:08:23.638Z,16.70
2022-10-18T02:10:56.891Z,16.64
2022-10-18T02:13:27.281Z,16.47
2022-10-18T02:15:59.415Z,16.50
2022-10-18T02:18:34.404Z,16.38
2022-10-18T02:21:03.962Z,16.23
2022-10-18T02:23:32.091Z,16.11
2022-10-18T02:25:58.889Z,16.19
2022-10-18T02:28:26.246Z,16.29
2022-10-18T02:30:59.026Z,16.42
2022-10-18T02:33:45.396Z,16.06
2022-10-18T02:36:38.178Z,16.48
2022-10-18T02:39:16.684Z,16.44
2022-10-18T02:41:43.892Z,15.93
2022-10-18T02:44:11.607Z,16.34
2022-10-18T02:46:39.646Z,16.28
2022-10-18T02:49:06.425Z,15.98
2022-10-18T02:51:33.256Z,16.35
2022-10-18T02:54:00.094Z,16.43
2022-10-18T02:56:26.856Z,16.30
2022-10-18T02:58:53.675Z,16.42
2022-10-18T03:01:20.474Z,16.18
2022-10-18T03:03:47.322Z,16.29
2022-10-18T03:06:14.181Z,16.09
2022-10-18T03:08:40.945Z,16.22
2022-10-18T03:11:08.251Z,16.36
2022-10-18T03:13:35.102Z,16.62
2022-10-18T03:16:02.234Z,16.42
2022-10-18T03:18:29.089Z,16.49
2022-10-18T03:20:55.915Z,16.63
2022-10-18T03:23:22.725Z,16.50
2022-10-18T03:25:49.726Z,16.63
2022-10-18T03:28:16.665Z,16.35
2022-10-18T03:30:43.440Z,16.13
2022-10-18T03:33:10.213Z,16.24
2022-10-18T03:35:37.073Z,16.08
2022-10-18T03:38:03.929Z,16.04
2022-10-18T03:42:57.786Z,16.31
2022-10-18T03:45:28.945Z,16.48
2022-10-18T03:47:58.045Z,16.44
2022-10-18T03:50:24.840Z,16.44
2022-10-18T03:52:51.630Z,16.24
2022-10-18T03:55:18.393Z,16.22
2022-10-18T03:57:45.249Z,16.24
2022-10-18T04:00:13.227Z,16.37
2022-10-18T04:02:41.355Z,16.37
2022-10-18T04:05:08.944Z,16.21
2022-10-18T04:10:04.308Z,15.93
2022-10-18T04:12:31.379Z,16.04
2022-10-18T04:14:58.434Z,16.14
2022-10-18T04:17:25.408Z,15.73
2022-10-18T04:19:52.164Z,15.74
2022-10-18T04:22:18.966Z,15.52
2022-10-18T04:24:45.753Z,15.42
2022-10-18T04:27:12.539Z,15.59
2022-10-18T04:29:39.445Z,15.52
2022-10-18T04:32:06.361Z,15.62
2022-10-18T04:34:33.270Z,15.72
2022-10-18T04:37:00.182Z,15.73
2022-10-18T04:39:27.026Z,15.73
2022-10-18T04:41:53.763Z,15.77
2022-10-18T04:44:20.519Z,15.56
2022-10-18T04:46:47.367Z,15.50
2022-10-18T04:49:14.495Z,15.52
2022-10-18T04:51:41.318Z,15.43
2022-10-18T04:54:08.257Z,15.52
2022-10-18T04:56:35.008Z,15.63
2022-10-18T04:59:01.766Z,15.43
2022-10-18T05:01:28.680Z,15.74
2022-10-18T05:03:55.481Z,15.40
2022-10-18T05:06:22.998Z,15.29
2022-10-18T05:08:50.110Z,15.65
2022-10-18T05:11:17.127Z,15.81
2022-10-18T05:13:46.047Z,15.58
2022-10-18T05:16:16.056Z,15.29
2022-10-18T05:18:43.394Z,15.37
2022-10-18T05:21:10.899Z,15.48
2022-10-18T05:23:37.774Z,15.73
2022-10-18T05:26:06.566Z,15.70
2022-10-18T05:28:39.193Z,15.44
2022-10-18T05:31:09.197Z,15.48
2022-10-18T05:33:36.547Z,15.18
2022-10-18T05:36:04.141Z,15.33
2022-10-18T05:38:31.421Z,15.34
2022-10-18T05:40:59.074Z,15.75
2022-10-18T05:43:29.452Z,15.70
2022-10-18T05:45:56.352Z,15.79
2022-10-18T05:48:23.255Z,15.68
2022-10-18T05:50:50.236Z,15.77
2022-10-18T05:53:36.597Z,15.77
2022-10-18T05:56:04.292Z,15.59
2022-10-18T05:58:31.160Z,15.75
2022-10-18T06:01:02.317Z,15.54
2022-10-18T06:03:30.862Z,15.39
2022-10-18T06:06:07.185Z,15.37
2022-10-18T06:08:35.335Z,15.10
2022-10-18T06:11:09.911Z,15.18
2022-10-18T06:13:47.886Z,15.09
2022-10-18T06:16:16.929Z,15.08
2022-10-18T06:18:47.118Z,14.99
2022-10-18T06:21:13.896Z,14.75
2022-10-18T06:23:40.986Z,14.85
2022-10-18T06:26:10.131Z,14.93
2022-10-18T06:28:38.591Z,14.59
2022-10-18T06:31:06.687Z,14.74
2022-10-18T06:33:35.206Z,14.59
2022-10-18T06:36:07.378Z,14.94
2022-10-18T06:38:35.256Z,14.74
2022-10-18T06:41:04.198Z,14.49
2022-10-18T06:43:30.963Z,14.42
2022-10-18T06:45:57.809Z,14.64
2022-10-18T06:48:24.704Z,14.14
2022-10-18T06:51:00.154Z,13.96
2022-10-18T06:53:30.492Z,13.99
2022-10-18T06:56:19.462Z,14.12
2022-10-18T06:58:46.306Z,14.56
2022-10-18T07:01:16.157Z,14.64
2022-10-18T07:03:44.338Z,14.21
2022-10-18T07:06:13.053Z,13.84
2022-10-18T07:08:40.755Z,13.69
2022-10-18T07:11:08.673Z,14.19
2022-10-18T07:13:35.501Z,13.98
2022-10-18T07:16:18.170Z,13.69
2022-10-18T07:18:50.708Z,14.06
2022-10-18T07:21:22.765Z,14.00
2022-10-18T07:23:50.968Z,14.04
2022-10-18T07:26:33.089Z,14.26
2022-10-18T07:29:05.267Z,14.11
2022-10-18T07:31:33.371Z,14.12
2022-10-18T07:34:00.525Z,14.20
2022-10-18T07:36:27.334Z,14.04
2022-10-18T07:38:54.438Z,14.08
2022-10-18T07:41:22.095Z,14.24
2022-10-18T07:43:51.064Z,13.77
2022-10-18T07:46:19.355Z,14.06
2022-10-18T07:48:46.136Z,14.45
2022-10-18T07:51:13.756Z,14.44
2022-10-18T07:53:40.793Z,14.47
2022-10-18T07:56:16.728Z,14.15
2022-10-18T07:58:45.243Z,14.31
2022-10-18T08:01:13.107Z,14.69
2022-10-18T08:03:41.232Z,14.78
2022-10-18T08:06:10.909Z,14.49
2022-10-18T08:08:39.380Z,14.44
2022-10-18T08:11:09.422Z,14.67
2022-10-18T08:13:36.770Z,14.46
2022-10-18T08:16:06.234Z,14.52
2022-10-18T08:18:33.124Z,14.77
2022-10-18T08:21:05.314Z,15.07
2022-10-18T08:23:32.501Z,15.35
2022-10-18T08:26:06.890Z,14.98
2022-10-18T08:28:36.810Z,15.10
2022-10-18T08:31:10.397Z,15.40
2022-10-18T08:33:38.606Z,15.64
2022-10-18T08:36:08.141Z,15.07
2022-10-18T08:38:36.207Z,15.36
2022-10-18T08:41:38.083Z,15.16
2022-10-18T08:44:07.922Z,14.48
2022-10-18T08:46:37.338Z,14.08
2022-10-18T08:49:05.693Z,14.42
2022-10-18T08:51:46.557Z,14.24
2022-10-18T08:54:29.268Z,13.84
2022-10-18T08:57:04.442Z,14.41
2022-10-18T08:59:38.154Z,14.52
2022-10-18T09:02:16.460Z,14.38
2022-10-18T09:05:09.161Z,14.68
2022-10-18T09:08:03.380Z,14.95
2022-10-18T09:10:45.852Z,14.96
2022-10-18T09:13:32.589Z,14.95
2022-10-18T09:16:06.125Z,15.50
2022-10-18T09:18:51.610Z,15.38
2022-10-18T09:21:27.393Z,15.54
2022-10-18T09:24:12.061Z,15.60
2022-10-18T09:26:47.889Z,15.89
2022-10-18T09:29:40.265Z,16.02
2022-10-18T09:32:25.526Z,15.94
2022-10-18T09:35:18.528Z,16.28
2022-10-18T09:37:46.179Z,16.09
2022-10-18T09:40:22.767Z,16.16
2022-10-18T09:43:08.246Z,16.27
2022-10-18T09:45:39.586Z,16.22
2022-10-18T09:48:22.729Z,16.66
2022-10-18T09:50:59.183Z,16.17
2022-10-18T09:53:36.947Z,16.40
2022-10-18T09:56:08.778Z,16.59
2022-10-18T09:58:44.244Z,16.69
2022-10-18T10:01:15.585Z,16.94
2022-10-18T10:03:42.879Z,17.04
2022-10-18T10:06:12.708Z,17.11
2022-10-18T10:08:53.714Z,17.12
2022-10-18T10:11:40.178Z,17.41
2022-10-18T10:14:27.963Z,17.21
2022-10-18T10:16:56.692Z,17.45
2022-10-18T10:19:30.524Z,17.45
2022-10-18T10:22:02.362Z,17.61
2022-10-18T10:24:50.494Z,17.01
2022-10-18T10:27:27.717Z,17.28
2022-10-18T10:29:58.172Z,17.50
2022-10-18T10:32:30.133Z,17.00
2022-10-18T10:34:57.992Z,17.84
2022-10-18T10:37:34.304Z,17.77
2022-10-18T10:40:18.304Z,17.90
2022-10-18T10:43:18.360Z,17.91
2022-10-18T10:46:07.581Z,18.12
2022-10-18T10:49:21.011Z,18.33
2022-10-18T10:52:02.523Z,18.03
2022-10-18T10:54:50.336Z,18.10
2022-10-18T10:57:26.181Z,18.11
2022-10-18T10:59:55.854Z,18.45
2022-10-18T11:02:29.709Z,18.20
2022-10-18T11:05:15.180Z,18.61
2022-10-18T11:07:46.497Z,18.39
2022-10-18T11:10:21.617Z,18.85
2022-10-18T11:13:07.809Z,18.55
2022-10-18T11:15:49.466Z,18.89
2022-10-18T11:18:31.435Z,19.00
2022-10-18T11:21:08.250Z,18.93
2022-10-18T11:23:41.321Z,19.76
2022-10-18T11:26:11.179Z,19.60
2022-10-18T11:29:08.690Z,19.39
2022-10-18T11:31:57.219Z,18.85
2022-10-18T11:34:39.292Z,19.08
2022-10-18T11:37:34.653Z,19.22
2022-10-18T11:40:32.474Z,19.64
2022-10-18T11:43:05.350Z,19.51
2022-10-18T11:45:57.036Z,19.16
2022-10-18T11:48:26.368Z,19.02
2022-10-18T11:50:59.182Z,19.16
2022-10-18T11:53:50.983Z,19.52
2022-10-18T11:56:40.457Z,19.25
2022-10-18T11:59:13.410Z,19.89
2022-10-18T12:02:18.252Z,20.45
2022-10-18T12:05:05.330Z,20.86
2022-10-18T12:07:57.822Z,20.66
2022-10-18T12:10:37.917Z,20.01
2022-10-18T12:13:25.769Z,19.35
2022-10-18T12:15:53.616Z,19.83
2022-10-18T12:18:23.352Z,19.32
2022-10-18T12:20:54.563Z,19.11
2022-10-18T12:23:38.096Z,18.94
2022-10-18T12:26:07.930Z,18.86
2022-10-18T12:28:55.602Z,19.04
2022-10-18T12:31:33.886Z,18.60
2022-10-18T12:34:11.400Z,18.38
2022-10-18T12:36:47.387Z,18.56
2022-10-18T12:39:45.101Z,18.82
2022-10-18T12:42:28.671Z,18.50
2022-10-18T12:45:19.607Z,18.63
2022-10-18T12:47:49.550Z,18.60
2022-10-18T12:50:38.280Z,18.49
2022-10-18T12:53:26.647Z,19.09
2022-10-18T12:55:55.336Z,18.87
2022-10-18T12:58:28.525Z,19.04
2022-10-18T13:01:04.106Z,19.07
2022-10-18T13:03:40.917Z,19.57
2022-10-18T13:06:08.053Z,20.18
2022-10-18T13:08:41.778Z,19.87
2022-10-18T13:11:08.562Z,20.17
2022-10-18T13:13:54.426Z,19.76
2022-10-18T13:16:27.639Z,19.84
2022-10-18T13:19:03.375Z,19.84
2022-10-18T13:21:54.293Z,18.97
2022-10-18T13:24:28.853Z,19.25
2022-10-18T13:27:24.059Z,18.95
2022-10-18T13:30:19.477Z,18.75
2022-10-18T13:33:12.391Z,18.33
2022-10-18T13:35:55.138Z,18.16
2022-10-18T13:38:48.437Z,18.94
2022-10-18T13:41:21.707Z,18.35
2022-10-18T13:43:52.738Z,18.51
2022-10-18T13:46:36.295Z,18.13
2022-10-18T13:49:35.450Z,18.40
2022-10-18T13:52:21.012Z,18.04
2022-10-18T13:55:25.184Z,18.59
2022-10-18T13:58:10.340Z,17.98
2022-10-18T14:01:01.943Z,17.94
2022-10-18T14:03:56.731Z,18.59
2022-10-18T14:06:27.553Z,18.09
2022-10-18T14:09:03.367Z,17.80
2022-10-18T14:11:46.281Z,18.28
2022-10-18T14:14:36.529Z,17.49
2022-10-18T14:17:25.128Z,18.56
2022-10-18T14:19:51.973Z,17.94
2022-10-18T14:23:01.750Z,17.86
2022-10-18T14:25:32.113Z,18.51
2022-10-18T14:28:13.606Z,18.42
2022-10-18T14:31:02.164Z,18.67
2022-10-18T14:33:39.723Z,18.69
2022-10-18T14:36:15.640Z,18.58
2022-10-18T14:38:47.924Z,18.90
2022-10-18T14:41:20.229Z,18.47
2022-10-18T14:43:48.327Z,18.15
2022-10-18T14:46:20.063Z,18.05
2022-10-18T14:49:00.460Z,17.95
2022-10-18T14:51:30.303Z,17.80
2022-10-18T14:53:57.177Z,17.97
2022-10-18T14:56:30.921Z,17.89
2022-10-18T14:59:02.572Z,17.96
2022-10-18T15:01:32.306Z,18.36
2022-10-18T15:04:04.065Z,17.77
2022-10-18T15:06:32.889Z,18.33
2022-10-18T15:09:04.284Z,18.15
2022-10-18T15:11:31.755Z,17.70
2022-10-18T15:14:06.921Z,17.83
2022-10-18T15:16:38.388Z,17.57
2022-10-18T15:19:23.205Z,17.79
2022-10-18T15:22:08.061Z,18.02
2022-10-18T15:24:41.562Z,18.19
2022-10-18T15:27:21.001Z,17.89
2022-10-18T15:29:48.073Z,18.07
2022-10-18T15:32:31.584Z,18.00
2022-10-18T15:35:25.709Z,17.94
2022-10-18T15:37:54.445Z,17.95
2022-10-18T15:40:24.395Z,17.71
2022-10-18T15:42:56.906Z,17.94
2022-10-18T15:45:23.690Z,18.07
2022-10-18T15:48:19.571Z,17.66
2022-10-18T15:50:50.009Z,17.45
2022-10-18T15:53:46.039Z,17.53
2022-10-18T15:56:27.896Z,17.47
2022-10-18T15:58:59.501Z,16.95
2022-10-18T16:01:46.671Z,17.17
2022-10-18T16:04:29.985Z,17.10
2022-10-18T16:06:58.004Z,17.59
2022-10-18T16:09:26.792Z,17.25
2022-10-18T16:11:56.991Z,17.44
2022-10-18T16:14:25.559Z,17.35
2022-10-18T16:16:55.587Z,17.35
2022-10-18T16:19:22.786Z,17.36
2022-10-18T16:21:51.083Z,17.03
2022-10-18T16:24:18.372Z,17.44
2022-10-18T16:26:45.264Z,17.22
2022-10-18T16:29:18.688Z,16.65
2022-10-18T16:31:46.777Z,16.96
2022-10-18T16:34:14.849Z,16.58
2022-10-18T16:36:41.653Z,16.45
2022-10-18T16:39:15.462Z,16.77
2022-10-18T16:41:42.693Z,16.93
2022-10-18T16:44:09.556Z,16.67
2022-10-18T16:46:37.093Z,16.80
2022-10-18T16:49:05.199Z,16.54
2022-10-18T16:51:32.344Z,16.47
2022-10-18T16:53:59.185Z,16.44
2022-10-18T16:56:30.622Z,16.14
2022-10-18T16:58:58.261Z,16.27
2022-10-18T17:01:26.315Z,16.54
2022-10-18T17:03:53.959Z,16.31
2022-10-18T17:06:33.569Z,16.41
2022-10-18T17:09:00.467Z,17.05
2022-10-18T17:11:28.621Z,16.93
2022-10-18T17:13:55.858Z,16.92
2022-10-18T17:19:03.700Z,16.89
2022-10-18T17:21:33.456Z,16.85
2022-10-18T17:24:04.414Z,17.42
2022-10-18T17:26:31.816Z,17.32
2022-10-18T17:29:01.569Z,17.08
2022-10-18T17:31:29.931Z,16.76
2022-10-18T17:33:58.431Z,17.29
2022-10-18T17:36:25.805Z,17.35
2022-10-18T17:38:53.234Z,16.88
2022-10-18T17:41:20.971Z,16.87
2022-10-18T17:43:48.471Z,16.77
2022-10-18T17:46:16.346Z,16.39
2022-10-18T17:48:43.301Z,16.20
2022-10-18T17:51:12.121Z,16.09
2022-10-18T17:53:39.317Z,16.01
2022-10-18T17:56:07.700Z,16.03
2022-10-18T17:58:35.130Z,15.94
2022-10-18T18:01:14.676Z,16.01
2022-10-18T18:03:41.978Z,16.07
2022-10-18T18:06:20.285Z,16.02
2022-10-18T18:08:48.351Z,16.07
2022-10-18T18:11:16.709Z,16.09
2022-10-18T18:13:43.623Z,15.82
2022-10-18T18:16:30.050Z,15.97
2022-10-18T18:18:58.393Z,15.91
2022-10-18T18:21:26.530Z,16.15
2022-10-18T18:23:53.970Z,16.24
2022-10-18T18:26:21.384Z,15.88
2022-10-18T18:28:48.892Z,16.04
2022-10-18T18:31:18.794Z,16.66
2022-10-18T18:33:45.734Z,16.69
2022-10-18T18:36:12.649Z,16.45
2022-10-18T18:38:42.715Z,16.62
2022-10-18T18:41:21.963Z,16.31
2022-10-18T18:43:53.469Z,16.38
2022-10-18T18:46:21.835Z,16.25
2022-10-18T18:48:49.167Z,16.70
2022-10-18T18:51:18.313Z,16.57
2022-10-18T18:53:46.874Z,16.36
2022-10-18T18:56:25.545Z,16.25
2022-10-18T18:58:53.604Z,16.43
2022-10-18T19:01:23.165Z,16.14
2022-10-18T19:03:52.773Z,16.40
2022-10-18T19:06:31.602Z,15.76
2022-10-18T19:09:02.880Z,16.06
2022-10-18T19:11:33.167Z,16.15
2022-10-18T19:14:00.791Z,16.47
2022-10-18T19:16:38.339Z,16.47
2022-10-18T19:19:12.688Z,16.35
2022-10-18T19:21:42.570Z,16.39
2022-10-18T19:24:09.399Z,16.54
2022-10-18T19:26:46.101Z,16.49
2022-10-18T19:29:13.074Z,16.29
2022-10-18T19:31:40.340Z,16.15
2022-10-18T19:34:09.435Z,16.07
2022-10-18T19:36:37.241Z,16.14
2022-10-18T19:39:06.106Z,16.31
2022-10-18T19:41:33.031Z,16.20
2022-10-18T19:43:59.897Z,16.24
2022-10-18T19:46:26.759Z,15.88
2022-10-18T19:48:54.292Z,16.10
2022-10-18T19:51:25.462Z,16.30
2022-10-18T19:53:55.474Z,16.36
2022-10-18T19:56:24.009Z,16.05
2022-10-18T19:58:51.731Z,15.83
2022-10-18T20:01:19.769Z,16.06
2022-10-18T20:03:47.452Z,16.08
2022-10-18T20:06:14.456Z,16.13
2022-10-18T20:11:12.166Z,15.88
2022-10-18T20:13:39.940Z,15.75
2022-10-18T20:16:08.954Z,15.69
2022-10-18T20:18:36.287Z,15.97
2022-10-18T20:21:08.055Z,16.03
2022-10-18T20:23:36.873Z,15.75
2022-10-18T20:26:20.519Z,15.83
2022-10-18T20:28:49.374Z,15.81
2022-10-18T20:31:19.609Z,15.31
2022-10-18T20:33:48.124Z,15.37
2022-10-18T20:36:17.203Z,15.37
2022-10-18T20:38:46.331Z,15.36
2022-10-18T20:41:17.817Z,15.54
2022-10-18T20:43:50.267Z,15.51
2022-10-18T20:46:17.718Z,15.28
2022-10-18T20:48:44.601Z,15.32
2022-10-18T20:51:12.833Z,15.44
2022-10-18T20:53:40.928Z,15.22
2022-10-18T20:56:14.692Z,15.26
2022-10-18T20:58:44.244Z,15.20
2022-10-18T21:01:14.519Z,14.83
2022-10-18T21:03:43.192Z,15.08
2022-10-18T21:06:15.478Z,15.17
2022-10-18T21:08:43.507Z,14.95
2022-10-18T21:11:11.755Z,14.96
2022-10-18T21:13:38.680Z,15.08
2022-10-18T21:16:06.738Z,14.88
2022-10-18T21:18:35.756Z,14.82
2022-10-18T21:23:45.785Z,14.72
2022-10-18T21:26:18.459Z,14.76
2022-10-18T21:28:45.866Z,14.65
2022-10-18T21:31:16.111Z,14.24
2022-10-18T21:33:44.934Z,14.18
2022-10-18T21:36:14.405Z,14.31
2022-10-18T21:38:45.705Z,14.28
2022-10-18T21:41:15.078Z,14.25
2022-10-18T21:43:44.885Z,14.07
2022-10-18T21:46:13.596Z,14.08
2022-10-18T21:48:48.191Z,14.34
2022-10-18T21:51:17.792Z,14.46
2022-10-18T21:53:46.647Z,14.56
2022-10-18T21:56:33.362Z,14.67
2022-10-18T21:59:00.901Z,14.65
2022-10-18T22:01:37.150Z,14.57
2022-10-18T22:04:06.322Z,14.72
2022-10-18T22:09:06.183Z,14.71
2022-10-18T22:11:47.712Z,14.80
2022-10-18T22:14:14.887Z,15.00
2022-10-18T22:16:41.718Z,14.96
2022-10-18T22:19:09.228Z,14.86
2022-10-18T22:21:36.139Z,14.80
2022-10-18T22:24:08.096Z,14.93
2022-10-18T22:26:37.666Z,14.95
2022-10-18T22:29:12.405Z,14.96
2022-10-18T22:31:42.533Z,15.05
2022-10-18T22:34:12.876Z,15.20
2022-10-18T22:36:39.941Z,15.30
2022-10-18T22:39:07.810Z,15.29
2022-10-18T22:41:35.390Z,15.16
2022-10-18T22:44:03.849Z,15.03
2022-10-18T22:46:32.744Z,14.99
2022-10-18T22:48:59.814Z,15.03
2022-10-18T22:51:26.780Z,15.04
2022-10-18T22:53:53.578Z,15.05
2022-10-18T22:56:22.715Z,15.07
2022-10-18T22:58:49.901Z,15.08
2022-10-18T23:01:19.829Z,15.11
2022-10-18T23:03:46.815Z,15.00
2022-10-18T23:06:33.893Z,14.98
2022-10-18T23:09:05.022Z,14.96
2022-10-18T23:11:32.338Z,15.11
2022-10-18T23:13:59.341Z,15.09
2022-10-18T23:16:26.137Z,15.02
2022-10-18T23:18:55.774Z,15.03
2022-10-18T23:21:24.942Z,14.98
2022-10-18T23:23:52.934Z,14.87
2022-10-18T23:26:22.026Z,15.04
2022-10-18T23:28:50.596Z,15.11
2022-10-18T23:31:20.180Z,15.21
2022-10-18T23:33:49.304Z,15.14
2022-10-18T23:36:16.973Z,15.06
2022-10-18T23:38:44.429Z,15.16
2022-10-18T23:41:12.641Z,15.25
2022-10-18T23:43:39.800Z,14.96
2022-10-18T23:46:06.854Z,15.18
2022-10-18T23:48:34.312Z,15.03
2022-10-18T23:51:02.149Z,15.11
2022-10-18T23:53:29.259Z,15.22
2022-10-18T23:55:59.027Z,15.21
2022-10-18T23:58:26.731Z,15.40
